createdAt,value
2018-05-31T00:00:59.792Z,0.00
2018-05-31T00:01:59.701Z,0.00
2018-05-31T00:02:59.611Z,0.00
2018-05-31T00:03:59.508Z,0.00
2018-05-31T00:04:59.420Z,0.00
2018-05-31T00:05:59.326Z,0.00
2018-05-31T00:06:59.234Z,0.00
2018-05-31T00:07:59.132Z,0.00
2018-05-31T00:08:59.041Z,0.00
2018-05-31T00:09:58.949Z,0.00
2018-05-31T00:10:58.858Z,0.00
2018-05-31T00:11:58.760Z,0.00
2018-05-31T00:12:58.664Z,0.00
2018-05-31T00:13:58.574Z,0.00
2018-05-31T00:14:58.482Z,0.00
2018-05-31T00:15:58.380Z,0.00
2018-05-31T00:16:58.289Z,0.00
2018-05-31T00:17:58.198Z,0.00
2018-05-31T00:18:58.108Z,0.00
2018-05-31T00:19:58.005Z,0.00
2018-05-31T00:20:57.912Z,0.00
2018-05-31T00:21:57.823Z,0.00
2018-05-31T00:22:57.734Z,0.00
2018-05-31T00:23:57.628Z,0.00
2018-05-31T00:24:57.537Z,0.00
2018-05-31T00:25:57.446Z,0.00
2018-05-31T00:26:57.344Z,0.00
2018-05-31T00:27:57.253Z,0.00
2018-05-31T00:28:57.161Z,0.00
2018-05-31T00:29:57.063Z,0.00
2018-05-31T00:30:56.968Z,0.00
2018-05-31T00:31:56.876Z,0.00
2018-05-31T00:32:56.786Z,0.00
2018-05-31T00:33:56.695Z,0.00
2018-05-31T00:34:56.591Z,0.00
2018-05-31T00:35:56.503Z,0.00
2018-05-31T00:36:56.414Z,0.00
2018-05-31T00:37:56.323Z,0.00
2018-05-31T00:38:56.216Z,0.00
2018-05-31T00:39:56.126Z,0.00
2018-05-31T00:40:56.037Z,0.00
2018-05-31T00:41:55.943Z,0.00
2018-05-31T00:42:55.839Z,0.00
2018-05-31T00:43:55.753Z,0.00
2018-05-31T00:44:55.658Z,0.00
2018-05-31T00:45:55.556Z,0.00
2018-05-31T00:46:55.473Z,0.00
2018-05-31T00:47:55.373Z,0.00
2018-05-31T00:48:55.284Z,0.00
2018-05-31T00:49:55.180Z,0.00
2018-05-31T00:50:55.090Z,0.00
2018-05-31T00:51:54.998Z,0.00
2018-05-31T00:52:54.895Z,0.00
2018-05-31T00:53:54.803Z,0.00
2018-05-31T00:54:54.712Z,0.00
2018-05-31T00:55:54.622Z,0.00
2018-05-31T00:56:54.518Z,0.00
2018-05-31T00:57:54.428Z,0.00
2018-05-31T00:58:54.338Z,0.00
2018-05-31T00:59:54.234Z,0.00
2018-05-31T01:00:54.144Z,0.00
2018-05-31T01:01:54.051Z,0.00
2018-05-31T01:02:53.961Z,0.00
2018-05-31T01:03:53.858Z,0.00
2018-05-31T01:04:53.767Z,0.00
2018-05-31T01:05:53.677Z,0.00
2018-05-31T01:06:53.574Z,0.00
2018-05-31T01:07:53.482Z,0.00
2018-05-31T01:08:53.392Z,0.00
2018-05-31T01:09:53.300Z,0.00
2018-05-31T01:10:53.196Z,0.00
2018-05-31T01:11:53.125Z,0.00
2018-05-31T01:12:53.016Z,0.00
2018-05-31T01:13:52.913Z,0.00
2018-05-31T01:14:52.822Z,0.00
2018-05-31T01:15:52.730Z,0.00
2018-05-31T01:16:52.641Z,0.00
2018-05-31T01:17:52.542Z,0.00
2018-05-31T01:18:52.446Z,0.00
2018-05-31T01:19:52.356Z,0.00
2018-05-31T01:20:52.254Z,0.00
2018-05-31T01:21:52.160Z,0.00
2018-05-31T01:22:52.117Z,0.00
2018-05-31T01:23:51.979Z,0.00
2018-05-31T01:24:51.889Z,0.00
2018-05-31T01:25:51.786Z,0.00
2018-05-31T01:26:51.694Z,0.00
2018-05-31T01:27:51.591Z,0.00
2018-05-31T01:28:51.501Z,0.00
2018-05-31T01:29:51.408Z,0.00
2018-05-31T01:30:51.320Z,0.00
2018-05-31T01:31:51.216Z,0.00
2018-05-31T01:32:51.129Z,0.00
2018-05-31T01:33:51.038Z,0.00
2018-05-31T01:34:50.931Z,0.00
2018-05-31T01:35:50.841Z,0.00
2018-05-31T01:36:50.749Z,0.00
2018-05-31T01:37:50.646Z,0.00
2018-05-31T01:38:50.554Z,0.00
2018-05-31T01:39:50.463Z,0.00
2018-05-31T01:40:50.361Z,0.00
2018-05-31T01:41:50.269Z,0.00
2018-05-31T01:42:50.179Z,0.00
2018-05-31T01:43:50.088Z,0.00
2018-05-31T01:44:49.985Z,0.00
2018-05-31T01:45:49.894Z,0.00
2018-05-31T01:46:49.807Z,0.00
2018-05-31T01:47:49.699Z,0.00
2018-05-31T01:48:49.610Z,0.00
2018-05-31T01:49:49.519Z,0.00
2018-05-31T01:50:49.416Z,0.00
2018-05-31T01:51:49.330Z,0.00
2018-05-31T01:52:49.233Z,0.00
2018-05-31T01:53:49.144Z,0.00
2018-05-31T01:54:49.039Z,0.00
2018-05-31T01:55:48.950Z,0.00
2018-05-31T01:56:48.857Z,0.00
2018-05-31T01:57:48.755Z,0.00
2018-05-31T01:58:48.663Z,0.00
2018-05-31T01:59:48.573Z,0.00
2018-05-31T02:00:48.481Z,0.00
2018-05-31T02:01:48.378Z,0.00
2018-05-31T02:02:48.288Z,0.00
2018-05-31T02:03:48.185Z,0.00
2018-05-31T02:04:48.093Z,0.00
2018-05-31T02:05:48.003Z,0.00
2018-05-31T02:06:47.911Z,0.00
2018-05-31T02:07:47.808Z,4.00
2018-05-31T02:08:47.717Z,4.00
2018-05-31T02:09:47.626Z,4.00
2018-05-31T02:10:47.524Z,0.00
2018-05-31T02:11:47.434Z,4.00
2018-05-31T02:12:47.342Z,4.00
2018-05-31T02:13:47.240Z,4.00
2018-05-31T02:14:47.149Z,4.00
2018-05-31T02:15:47.056Z,4.00
2018-05-31T02:16:46.955Z,8.00
2018-05-31T02:17:46.869Z,4.00
2018-05-31T02:18:46.772Z,8.00
2018-05-31T02:19:46.682Z,8.00
2018-05-31T02:20:46.579Z,8.00
2018-05-31T02:21:46.490Z,12.00
2018-05-31T02:22:46.406Z,12.00
2018-05-31T02:23:46.298Z,12.00
2018-05-31T02:24:46.202Z,16.00
2018-05-31T02:25:46.112Z,16.00
2018-05-31T02:26:46.009Z,20.00
2018-05-31T02:27:45.917Z,20.00
2018-05-31T02:28:45.828Z,24.00
2018-05-31T02:29:45.735Z,24.00
2018-05-31T02:30:45.637Z,28.00
2018-05-31T02:31:45.541Z,32.00
2018-05-31T02:32:45.451Z,32.00
2018-05-31T02:33:45.348Z,40.00
2018-05-31T02:34:45.256Z,44.00
2018-05-31T02:35:45.165Z,48.00
2018-05-31T02:36:45.064Z,52.00
2018-05-31T02:37:44.971Z,56.00
2018-05-31T02:38:44.880Z,64.00
2018-05-31T02:39:44.794Z,68.00
2018-05-31T02:40:44.687Z,76.00
2018-05-31T02:41:44.595Z,84.00
2018-05-31T02:42:44.505Z,96.00
2018-05-31T02:43:44.402Z,100.00
2018-05-31T02:44:44.311Z,108.00
2018-05-31T02:45:44.221Z,120.00
2018-05-31T02:46:44.118Z,132.00
2018-05-31T02:47:44.026Z,144.00
2018-05-31T02:48:43.935Z,152.00
2018-05-31T02:49:43.843Z,164.00
2018-05-31T02:50:43.740Z,176.00
2018-05-31T02:51:43.651Z,188.00
2018-05-31T02:52:43.559Z,204.00
2018-05-31T02:53:43.460Z,220.00
2018-05-31T02:54:43.366Z,232.00
2018-05-31T02:55:43.277Z,248.00
2018-05-31T02:56:43.170Z,268.00
2018-05-31T02:57:43.084Z,284.00
2018-05-31T02:58:42.989Z,300.00
2018-05-31T02:59:42.888Z,320.00
2018-05-31T03:00:42.795Z,340.00
2018-05-31T03:01:42.704Z,360.00
2018-05-31T03:02:42.604Z,380.00
2018-05-31T03:03:42.511Z,400.00
2018-05-31T03:04:42.420Z,424.00
2018-05-31T03:05:42.329Z,448.00
2018-05-31T03:06:42.226Z,468.00
2018-05-31T03:07:42.135Z,496.00
2018-05-31T03:08:42.045Z,520.00
2018-05-31T03:09:41.952Z,548.00
2018-05-31T03:10:41.849Z,572.00
2018-05-31T03:11:41.759Z,600.00
2018-05-31T03:12:41.656Z,628.00
2018-05-31T03:13:41.564Z,652.00
2018-05-31T03:14:41.479Z,680.00
2018-05-31T03:15:41.371Z,704.00
2018-05-31T03:16:41.280Z,736.00
2018-05-31T03:17:41.190Z,764.00
2018-05-31T03:18:41.097Z,788.00
2018-05-31T03:19:41.008Z,816.00
2018-05-31T03:20:40.904Z,844.00
2018-05-31T03:21:40.813Z,872.00
2018-05-31T03:22:40.710Z,900.00
2018-05-31T03:23:40.622Z,928.00
2018-05-31T03:24:40.529Z,964.00
2018-05-31T03:25:40.431Z,992.00
2018-05-31T03:26:40.335Z,1028.00
2018-05-31T03:27:40.244Z,1068.00
2018-05-31T03:28:40.141Z,1108.00
2018-05-31T03:29:40.050Z,1148.00
2018-05-31T03:30:39.959Z,1192.00
2018-05-31T03:31:39.861Z,1240.00
2018-05-31T03:32:39.765Z,1288.00
2018-05-31T03:33:39.673Z,1332.00
2018-05-31T03:34:39.588Z,1372.00
2018-05-31T03:35:39.480Z,1408.00
2018-05-31T03:36:39.390Z,1444.00
2018-05-31T03:37:39.299Z,1488.00
2018-05-31T03:38:39.200Z,1528.00
2018-05-31T03:39:39.103Z,1564.00
2018-05-31T03:40:39.014Z,1596.00
2018-05-31T03:41:38.922Z,1620.00
2018-05-31T03:42:38.819Z,1656.00
2018-05-31T03:43:38.729Z,1692.00
2018-05-31T03:44:38.637Z,1740.00
2018-05-31T03:45:38.535Z,1784.00
2018-05-31T03:46:38.443Z,1832.00
2018-05-31T03:47:38.352Z,1884.00
2018-05-31T03:48:38.249Z,1944.00
2018-05-31T03:49:38.158Z,1996.00
2018-05-31T03:50:38.069Z,2052.00
2018-05-31T03:51:37.979Z,2116.00
2018-05-31T03:52:37.873Z,2188.00
2018-05-31T03:53:37.782Z,2252.00
2018-05-31T03:54:37.692Z,2304.00
2018-05-31T03:55:37.589Z,2368.00
2018-05-31T03:56:37.496Z,2420.00
2018-05-31T03:57:37.408Z,2428.00
2018-05-31T03:58:37.315Z,2392.00
2018-05-31T03:59:37.212Z,2408.00
2018-05-31T04:00:37.122Z,2420.00
2018-05-31T04:01:37.031Z,2452.00
2018-05-31T04:02:36.940Z,2476.00
2018-05-31T04:03:36.837Z,2500.00
2018-05-31T04:04:36.745Z,2520.00
2018-05-31T04:05:36.657Z,2568.00
2018-05-31T04:06:36.565Z,2628.00
2018-05-31T04:07:36.461Z,2688.00
2018-05-31T04:08:36.371Z,2744.00
2018-05-31T04:09:36.282Z,2812.00
2018-05-31T04:10:36.189Z,2896.00
2018-05-31T04:11:36.085Z,2972.00
2018-05-31T04:12:35.994Z,3040.00
2018-05-31T04:13:35.905Z,3084.00
2018-05-31T04:14:35.813Z,3008.00
2018-05-31T04:15:35.709Z,3080.00
2018-05-31T04:16:35.619Z,3224.00
2018-05-31T04:17:35.528Z,3212.00
2018-05-31T04:18:35.437Z,3308.00
2018-05-31T04:19:35.334Z,3356.00
2018-05-31T04:20:35.243Z,3396.00
2018-05-31T04:21:35.155Z,3392.00
2018-05-31T04:22:35.062Z,3440.00
2018-05-31T04:23:34.972Z,3456.00
2018-05-31T04:24:34.867Z,3500.00
2018-05-31T04:25:34.776Z,3600.00
2018-05-31T04:26:34.686Z,3748.00
2018-05-31T04:27:34.594Z,3912.00
2018-05-31T04:28:34.493Z,4016.00
2018-05-31T04:29:34.401Z,4116.00
2018-05-31T04:30:34.310Z,4264.00
2018-05-31T04:31:34.219Z,4412.00
2018-05-31T04:32:34.128Z,4676.00
2018-05-31T04:33:34.038Z,4816.00
2018-05-31T04:34:33.934Z,5012.00
2018-05-31T04:35:33.843Z,5156.00
2018-05-31T04:36:33.753Z,5224.00
2018-05-31T04:37:33.661Z,5296.00
2018-05-31T04:38:33.560Z,5364.00
2018-05-31T04:39:33.468Z,5428.00
2018-05-31T04:40:33.376Z,5492.00
2018-05-31T04:41:33.291Z,5560.00
2018-05-31T04:42:33.298Z,5628.00
2018-05-31T04:43:33.104Z,5704.00
2018-05-31T04:44:33.013Z,5756.00
2018-05-31T04:45:32.923Z,5808.00
2018-05-31T04:46:32.835Z,5868.00
2018-05-31T04:47:32.730Z,5920.00
2018-05-31T04:48:32.649Z,5976.00
2018-05-31T04:49:32.548Z,6028.00
2018-05-31T04:50:32.456Z,6084.00
2018-05-31T04:51:32.364Z,6104.00
2018-05-31T04:52:32.279Z,6112.00
2018-05-31T04:53:32.187Z,6176.00
2018-05-31T04:54:32.094Z,6236.00
2018-05-31T04:55:32.003Z,6244.00
2018-05-31T04:56:31.911Z,6288.00
2018-05-31T04:57:31.819Z,6372.00
2018-05-31T04:58:31.730Z,6448.00
2018-05-31T04:59:31.638Z,6528.00
2018-05-31T05:00:31.548Z,6588.00
2018-05-31T05:01:31.457Z,6672.00
2018-05-31T05:02:31.367Z,6760.00
2018-05-31T05:03:31.275Z,6804.00
2018-05-31T05:04:31.185Z,6836.00
2018-05-31T05:05:31.106Z,6936.00
2018-05-31T05:06:31.015Z,6992.00
2018-05-31T05:07:30.925Z,7060.00
2018-05-31T05:08:30.833Z,7088.00
2018-05-31T05:09:30.744Z,7128.00
2018-05-31T05:10:30.652Z,7196.00
2018-05-31T05:11:30.561Z,7244.00
2018-05-31T05:12:30.470Z,7288.00
2018-05-31T05:13:30.381Z,7340.00
2018-05-31T05:14:30.289Z,7372.00
2018-05-31T05:15:30.198Z,7400.00
2018-05-31T05:16:30.109Z,7448.00
2018-05-31T05:17:30.029Z,7500.00
2018-05-31T05:18:29.941Z,7564.00
2018-05-31T05:19:29.847Z,7636.00
2018-05-31T05:20:29.756Z,7684.00
2018-05-31T05:21:29.665Z,7732.00
2018-05-31T05:22:29.576Z,7788.00
2018-05-31T05:23:29.483Z,7840.00
2018-05-31T05:24:29.393Z,7876.00
2018-05-31T05:25:29.314Z,7904.00
2018-05-31T05:26:29.246Z,7944.00
2018-05-31T05:27:29.133Z,8028.00
2018-05-31T05:28:29.042Z,8136.00
2018-05-31T05:29:28.952Z,8268.00
2018-05-31T05:30:28.860Z,8360.00
2018-05-31T05:31:28.781Z,8364.00
2018-05-31T05:32:28.712Z,8360.00
2018-05-31T05:33:28.600Z,8416.00
2018-05-31T05:34:28.510Z,8464.00
2018-05-31T05:35:28.419Z,8524.00
2018-05-31T05:36:28.340Z,8592.00
2018-05-31T05:37:28.254Z,8668.00
2018-05-31T05:38:28.159Z,8788.00
2018-05-31T05:39:28.069Z,9004.00
2018-05-31T05:40:27.977Z,9164.00
2018-05-31T05:41:27.902Z,9180.00
2018-05-31T05:42:27.809Z,9112.00
2018-05-31T05:43:27.719Z,9076.00
2018-05-31T05:44:27.630Z,9068.00
2018-05-31T05:45:27.536Z,9088.00
2018-05-31T05:46:27.457Z,9132.00
2018-05-31T05:47:27.368Z,9168.00
2018-05-31T05:48:27.279Z,9204.00
2018-05-31T05:49:27.188Z,9252.00
2018-05-31T05:50:27.108Z,9312.00
2018-05-31T05:51:27.016Z,9404.00
2018-05-31T05:52:26.926Z,9488.00
2018-05-31T05:53:26.836Z,9564.00
2018-05-31T05:54:26.756Z,9700.00
2018-05-31T05:55:26.667Z,9888.00
2018-05-31T05:56:26.594Z,10088.00
2018-05-31T05:57:26.496Z,10208.00
2018-05-31T05:58:26.407Z,10320.00
2018-05-31T05:59:26.328Z,10620.00
2018-05-31T06:00:26.237Z,10952.00
2018-05-31T06:01:26.146Z,11028.00
2018-05-31T06:02:26.055Z,11096.00
2018-05-31T06:03:25.965Z,11280.00
2018-05-31T06:04:25.886Z,11508.00
2018-05-31T06:05:25.795Z,11748.00
2018-05-31T06:06:25.705Z,12068.00
2018-05-31T06:07:25.627Z,12264.00
2018-05-31T06:08:25.535Z,12512.00
2018-05-31T06:09:25.466Z,12848.00
2018-05-31T06:10:25.365Z,13228.00
2018-05-31T06:11:25.275Z,13048.00
2018-05-31T06:12:25.196Z,12308.00
2018-05-31T06:13:25.107Z,11868.00
2018-05-31T06:14:25.017Z,11864.00
2018-05-31T06:15:24.953Z,11812.00
2018-05-31T06:16:24.850Z,11600.00
2018-05-31T06:17:24.769Z,11644.00
2018-05-31T06:18:24.676Z,11756.00
2018-05-31T06:19:24.586Z,11864.00
2018-05-31T06:20:24.509Z,11980.00
2018-05-31T06:21:24.419Z,12160.00
2018-05-31T06:22:24.339Z,12432.00
2018-05-31T06:23:24.248Z,12600.00
2018-05-31T06:24:24.170Z,12544.00
2018-05-31T06:25:24.082Z,12576.00
2018-05-31T06:26:24.077Z,12676.00
2018-05-31T06:27:23.910Z,12900.00
2018-05-31T06:28:23.819Z,13176.00
2018-05-31T06:29:23.740Z,13216.00
2018-05-31T06:30:23.649Z,13140.00
2018-05-31T06:31:23.572Z,13192.00
2018-05-31T06:32:23.484Z,13268.00
2018-05-31T06:33:23.403Z,13420.00
2018-05-31T06:34:23.312Z,13580.00
2018-05-31T06:35:23.235Z,13892.00
2018-05-31T06:36:23.142Z,14124.00
2018-05-31T06:37:23.113Z,14136.00
2018-05-31T06:38:22.973Z,14268.00
2018-05-31T06:39:22.901Z,14440.00
2018-05-31T06:40:22.803Z,14744.00
2018-05-31T06:41:22.725Z,14900.00
2018-05-31T06:42:22.636Z,15028.00
2018-05-31T06:43:22.557Z,15116.00
2018-05-31T06:44:22.465Z,15188.00
2018-05-31T06:45:22.387Z,15324.00
2018-05-31T06:46:22.297Z,15476.00
2018-05-31T06:47:22.219Z,15640.00
2018-05-31T06:48:22.132Z,15788.00
2018-05-31T06:49:22.049Z,15904.00
2018-05-31T06:50:21.970Z,16292.00
2018-05-31T06:51:21.881Z,16304.00
2018-05-31T06:52:21.803Z,16508.00
2018-05-31T06:53:21.710Z,16772.00
2018-05-31T06:54:21.645Z,17044.00
2018-05-31T06:55:21.567Z,17504.00
2018-05-31T06:56:21.464Z,17504.00
2018-05-31T06:57:21.373Z,17376.00
2018-05-31T06:58:21.294Z,17344.00
2018-05-31T06:59:21.215Z,17376.00
2018-05-31T07:00:21.125Z,17568.00
2018-05-31T07:01:21.047Z,17472.00
2018-05-31T07:02:20.971Z,17376.00
2018-05-31T07:03:20.877Z,17536.00
2018-05-31T07:04:20.789Z,17824.00
2018-05-31T07:05:20.710Z,18112.00
2018-05-31T07:06:20.619Z,18368.00
2018-05-31T07:07:20.538Z,18656.00
2018-05-31T07:08:20.461Z,18912.00
2018-05-31T07:09:20.372Z,19072.00
2018-05-31T07:10:20.293Z,18976.00
2018-05-31T07:11:20.201Z,18880.00
2018-05-31T07:12:20.126Z,18912.00
2018-05-31T07:13:20.044Z,19072.00
2018-05-31T07:14:19.954Z,19072.00
2018-05-31T07:15:19.876Z,19264.00
2018-05-31T07:16:19.785Z,19744.00
2018-05-31T07:17:19.707Z,20160.00
2018-05-31T07:18:19.628Z,20352.00
2018-05-31T07:19:19.587Z,20480.00
2018-05-31T07:20:19.460Z,20896.00
2018-05-31T07:21:19.381Z,21632.00
2018-05-31T07:22:19.289Z,22912.00
2018-05-31T07:23:19.212Z,24384.00
2018-05-31T07:24:19.133Z,25824.00
2018-05-31T07:25:19.044Z,27168.00
2018-05-31T07:26:18.965Z,28800.00
2018-05-31T07:27:18.906Z,31552.00
2018-05-31T07:28:18.797Z,36832.00
2018-05-31T07:29:18.716Z,45504.00
2018-05-31T07:30:18.638Z,54560.00
2018-05-31T07:31:18.548Z,60768.00
2018-05-31T07:32:18.470Z,61280.00
2018-05-31T07:33:18.392Z,61440.00
2018-05-31T07:34:18.304Z,60832.00
2018-05-31T07:35:18.222Z,60224.00
2018-05-31T07:36:18.210Z,64320.00
2018-05-31T07:37:18.071Z,69856.00
2018-05-31T07:38:17.975Z,76320.00
2018-05-31T07:39:17.896Z,81088.00
2018-05-31T07:40:17.821Z,81984.00
2018-05-31T07:41:17.730Z,82560.00
2018-05-31T07:42:17.648Z,86336.00
2018-05-31T07:43:17.570Z,92288.00
2018-05-31T07:44:17.513Z,97024.00
2018-05-31T07:45:17.402Z,105632.00
2018-05-31T07:46:17.324Z,113952.00
2018-05-31T07:47:17.233Z,128096.00
2018-05-31T07:48:17.153Z,140384.00
2018-05-31T07:49:17.077Z,146048.00
2018-05-31T07:50:16.988Z,141696.00
2018-05-31T07:51:16.942Z,132960.00
2018-05-31T07:52:16.828Z,122048.00
2018-05-31T07:53:16.750Z,110720.00
2018-05-31T07:54:16.658Z,100064.00
2018-05-31T07:55:16.580Z,93088.00
2018-05-31T07:56:16.502Z,86240.00
2018-05-31T07:57:16.412Z,79968.00
2018-05-31T07:58:16.381Z,76832.00
2018-05-31T07:59:16.257Z,74368.00
2018-05-31T08:00:16.166Z,69536.00
2018-05-31T08:01:16.085Z,63328.00
2018-05-31T08:02:16.008Z,57024.00
2018-05-31T08:03:15.931Z,53760.00
2018-05-31T08:04:15.840Z,52640.00
2018-05-31T08:05:15.761Z,51008.00
2018-05-31T08:06:15.683Z,41280.00
2018-05-31T08:07:15.604Z,26880.00
2018-05-31T08:08:15.512Z,15068.00
2018-05-31T08:09:15.435Z,12092.00
2018-05-31T08:10:15.356Z,11680.00
2018-05-31T08:11:15.511Z,11440.00
2018-05-31T08:12:15.187Z,11336.00
2018-05-31T08:13:15.108Z,11316.00
2018-05-31T08:14:15.017Z,11372.00
2018-05-31T08:15:14.943Z,11460.00
2018-05-31T08:16:14.861Z,11492.00
2018-05-31T08:17:14.781Z,11524.00
2018-05-31T08:18:14.692Z,11560.00
2018-05-31T08:19:14.601Z,11656.00
2018-05-31T08:20:14.523Z,11748.00
2018-05-31T08:21:14.433Z,11856.00
2018-05-31T08:22:14.355Z,11908.00
2018-05-31T08:23:14.263Z,11996.00
2018-05-31T08:24:14.184Z,12052.00
2018-05-31T08:25:14.094Z,12088.00
2018-05-31T08:26:14.017Z,12124.00
2018-05-31T08:27:13.924Z,12216.00
2018-05-31T08:28:13.850Z,12324.00
2018-05-31T08:29:13.756Z,12432.00
2018-05-31T08:30:13.664Z,12596.00
2018-05-31T08:31:13.586Z,12832.00
2018-05-31T08:32:13.496Z,13184.00
2018-05-31T08:33:13.404Z,14044.00
2018-05-31T08:34:13.326Z,19008.00
2018-05-31T08:35:13.236Z,29568.00
2018-05-31T08:36:13.145Z,39200.00
2018-05-31T08:37:13.079Z,44352.00
2018-05-31T08:38:12.976Z,47936.00
2018-05-31T08:39:12.884Z,51840.00
2018-05-31T08:40:12.806Z,52544.00
2018-05-31T08:41:12.716Z,52992.00
2018-05-31T08:42:12.638Z,49952.00
2018-05-31T08:43:12.546Z,50080.00
2018-05-31T08:44:12.476Z,51808.00
2018-05-31T08:45:12.379Z,52768.00
2018-05-31T08:46:12.287Z,52448.00
2018-05-31T08:47:12.208Z,52416.00
2018-05-31T08:48:12.118Z,54592.00
2018-05-31T08:49:12.040Z,56448.00
2018-05-31T08:50:11.948Z,56224.00
2018-05-31T08:51:11.870Z,54176.00
2018-05-31T08:52:11.780Z,53312.00
2018-05-31T08:53:11.701Z,54528.00
2018-05-31T08:54:11.610Z,56608.00
2018-05-31T08:55:11.532Z,59040.00
2018-05-31T08:56:11.454Z,59872.00
2018-05-31T08:57:11.364Z,59616.00
2018-05-31T08:58:11.285Z,59008.00
2018-05-31T08:59:11.193Z,58752.00
2018-05-31T09:00:11.120Z,59904.00
2018-05-31T09:01:11.037Z,61632.00
2018-05-31T09:02:10.947Z,65120.00
2018-05-31T09:03:10.868Z,67008.00
2018-05-31T09:04:10.787Z,68352.00
2018-05-31T09:05:10.699Z,68768.00
2018-05-31T09:06:10.621Z,66816.00
2018-05-31T09:07:10.531Z,65216.00
2018-05-31T09:08:10.454Z,62720.00
2018-05-31T09:09:10.376Z,59808.00
2018-05-31T09:10:10.283Z,57152.00
2018-05-31T09:11:10.204Z,55904.00
2018-05-31T09:12:10.125Z,55328.00
2018-05-31T09:13:10.047Z,54784.00
2018-05-31T09:14:09.959Z,54144.00
2018-05-31T09:15:09.889Z,54240.00
2018-05-31T09:16:09.800Z,53536.00
2018-05-31T09:17:09.722Z,54368.00
2018-05-31T09:18:09.633Z,54624.00
2018-05-31T09:19:09.552Z,54848.00
2018-05-31T09:20:09.474Z,55520.00
2018-05-31T09:21:09.396Z,56320.00
2018-05-31T09:22:09.326Z,56768.00
2018-05-31T09:23:09.238Z,56832.00
2018-05-31T09:24:09.149Z,56608.00
2018-05-31T09:25:09.070Z,56672.00
2018-05-31T09:26:08.995Z,56256.00
2018-05-31T09:27:08.915Z,56512.00
2018-05-31T09:28:08.840Z,55680.00
2018-05-31T09:29:08.763Z,54592.00
2018-05-31T09:30:08.688Z,55264.00
2018-05-31T09:31:08.587Z,56640.00
2018-05-31T09:32:08.510Z,56832.00
2018-05-31T09:33:08.430Z,56128.00
2018-05-31T09:34:08.352Z,55968.00
2018-05-31T09:35:08.283Z,56128.00
2018-05-31T09:36:08.196Z,57600.00
2018-05-31T09:37:08.131Z,56704.00
2018-05-31T09:38:08.039Z,56512.00
2018-05-31T09:39:07.964Z,55680.00
2018-05-31T09:40:07.872Z,55360.00
2018-05-31T09:41:07.795Z,55456.00
2018-05-31T09:42:07.713Z,55936.00
2018-05-31T09:43:07.636Z,55712.00
2018-05-31T09:44:07.558Z,54912.00
2018-05-31T09:45:07.480Z,54592.00
2018-05-31T09:46:07.400Z,54720.00
2018-05-31T09:47:07.322Z,53952.00
2018-05-31T09:48:07.245Z,53792.00
2018-05-31T09:49:07.166Z,52864.00
2018-05-31T09:50:07.089Z,52224.00
2018-05-31T09:51:07.009Z,51936.00
2018-05-31T09:52:06.934Z,51328.00
2018-05-31T09:53:06.854Z,50112.00
2018-05-31T09:54:06.761Z,49536.00
2018-05-31T09:55:06.684Z,49536.00
2018-05-31T09:56:06.604Z,49088.00
2018-05-31T09:57:06.530Z,47872.00
2018-05-31T09:58:06.461Z,47872.00
2018-05-31T09:59:06.378Z,48192.00
2018-05-31T10:00:06.295Z,48000.00
2018-05-31T10:01:06.213Z,48000.00
2018-05-31T10:02:06.135Z,48544.00
2018-05-31T10:03:06.060Z,48256.00
2018-05-31T10:04:05.980Z,48672.00
2018-05-31T10:05:05.903Z,48608.00
2018-05-31T10:06:05.821Z,48736.00
2018-05-31T10:07:05.743Z,49344.00
2018-05-31T10:08:05.664Z,56416.00
2018-05-31T10:09:05.587Z,78016.00
2018-05-31T10:10:05.510Z,126848.00
2018-05-31T10:11:05.429Z,157088.00
2018-05-31T10:12:05.351Z,144224.00
2018-05-31T10:13:05.273Z,116928.00
2018-05-31T10:14:05.195Z,110208.00
2018-05-31T10:15:05.123Z,114464.00
2018-05-31T10:16:05.038Z,118816.00
2018-05-31T10:17:04.976Z,118880.00
2018-05-31T10:18:04.883Z,115296.00
2018-05-31T10:19:04.817Z,113568.00
2018-05-31T10:20:04.726Z,108672.00
2018-05-31T10:21:04.659Z,112256.00
2018-05-31T10:22:04.581Z,117568.00
2018-05-31T10:23:04.503Z,119360.00
2018-05-31T10:24:04.425Z,121792.00
2018-05-31T10:25:04.347Z,122016.00
2018-05-31T10:26:04.270Z,122240.00
2018-05-31T10:27:04.190Z,124832.00
2018-05-31T10:28:04.111Z,130592.00
2018-05-31T10:29:04.033Z,132832.00
2018-05-31T10:30:04.014Z,131872.00
2018-05-31T10:31:03.888Z,134528.00
2018-05-31T10:32:03.810Z,135872.00
2018-05-31T10:33:03.731Z,134112.00
2018-05-31T10:34:03.653Z,130240.00
2018-05-31T10:35:03.588Z,130528.00
2018-05-31T10:36:03.510Z,128416.00
2018-05-31T10:37:03.434Z,125312.00
2018-05-31T10:38:03.353Z,114528.00
2018-05-31T10:39:03.275Z,109152.00
2018-05-31T10:40:03.210Z,107968.00
2018-05-31T10:41:03.132Z,106336.00
2018-05-31T10:42:03.052Z,106528.00
2018-05-31T10:43:02.973Z,108768.00
2018-05-31T10:44:02.908Z,107520.00
2018-05-31T10:45:02.838Z,106752.00
2018-05-31T10:46:02.753Z,103136.00
2018-05-31T10:47:02.674Z,105504.00
2018-05-31T10:48:02.607Z,106720.00
2018-05-31T10:49:02.530Z,109344.00
2018-05-31T10:50:02.451Z,109248.00
2018-05-31T10:51:02.373Z,110784.00
2018-05-31T10:52:02.296Z,110816.00
2018-05-31T10:53:02.229Z,110752.00
2018-05-31T10:54:02.151Z,110592.00
2018-05-31T10:55:02.073Z,108960.00
2018-05-31T10:56:01.994Z,109664.00
2018-05-31T10:57:01.929Z,110624.00
2018-05-31T10:58:01.849Z,109152.00
2018-05-31T10:59:01.771Z,109600.00
2018-05-31T11:00:01.693Z,107008.00
2018-05-31T11:01:01.615Z,107808.00
2018-05-31T11:02:01.537Z,106464.00
2018-05-31T11:03:01.475Z,104288.00
2018-05-31T11:04:01.393Z,101792.00
2018-05-31T11:05:01.315Z,99456.00
2018-05-31T11:06:01.236Z,96160.00
2018-05-31T11:07:01.158Z,95328.00
2018-05-31T11:08:01.092Z,93472.00
2018-05-31T11:09:01.014Z,91872.00
2018-05-31T11:10:00.935Z,92672.00
2018-05-31T11:11:00.856Z,97984.00
2018-05-31T11:12:00.791Z,101952.00
2018-05-31T11:13:00.701Z,104384.00
2018-05-31T11:14:00.640Z,110336.00
2018-05-31T11:15:00.563Z,112416.00
2018-05-31T11:16:00.478Z,110688.00
2018-05-31T11:17:00.407Z,108992.00
2018-05-31T11:18:00.321Z,111488.00
2018-05-31T11:19:00.243Z,111168.00
2018-05-31T11:20:00.176Z,112672.00
2018-05-31T11:21:00.097Z,117632.00
2018-05-31T11:22:00.020Z,125184.00
2018-05-31T11:22:59.942Z,119776.00
2018-05-31T11:23:59.863Z,113888.00
2018-05-31T11:24:59.787Z,108224.00
2018-05-31T11:25:59.707Z,106080.00
2018-05-31T11:26:59.642Z,101312.00
2018-05-31T11:27:59.563Z,100096.00
2018-05-31T11:28:59.485Z,102112.00
2018-05-31T11:29:59.407Z,102112.00
2018-05-31T11:30:59.328Z,98944.00
2018-05-31T11:31:59.250Z,96416.00
2018-05-31T11:32:59.172Z,95328.00
2018-05-31T11:33:59.105Z,94272.00
2018-05-31T11:34:59.028Z,93824.00
2018-05-31T11:35:58.949Z,94080.00
2018-05-31T11:36:58.870Z,98912.00
2018-05-31T11:37:58.792Z,96512.00
2018-05-31T11:38:58.714Z,88000.00
2018-05-31T11:39:58.637Z,54496.00
2018-05-31T11:40:58.557Z,83936.00
2018-05-31T11:41:58.479Z,13844.00
2018-05-31T11:42:58.413Z,12752.00
2018-05-31T11:43:58.336Z,19712.00
2018-05-31T11:44:58.257Z,36608.00
2018-05-31T11:45:58.178Z,82880.00
2018-05-31T11:46:58.100Z,33760.00
2018-05-31T11:47:58.026Z,19104.00
2018-05-31T11:48:57.943Z,45824.00
2018-05-31T11:49:57.867Z,50560.00
2018-05-31T11:50:57.788Z,60032.00
2018-05-31T11:51:57.709Z,55584.00
2018-05-31T11:52:57.618Z,49664.00
2018-05-31T11:53:57.542Z,43296.00
2018-05-31T11:54:57.462Z,37440.00
2018-05-31T11:55:57.382Z,51136.00
2018-05-31T11:56:57.303Z,81504.00
2018-05-31T11:57:57.225Z,91584.00
2018-05-31T11:58:57.136Z,91840.00
2018-05-31T11:59:57.058Z,91872.00
2018-05-31T12:00:56.978Z,92256.00
2018-05-31T12:01:56.901Z,51616.00
2018-05-31T12:02:56.822Z,13624.00
2018-05-31T12:03:56.745Z,95360.00
2018-05-31T12:04:56.665Z,93632.00
2018-05-31T12:05:56.574Z,93696.00
2018-05-31T12:06:56.509Z,91392.00